Nearby METAR Reports

 

KSJC - San Jose, California, USA
Distance from station: NE 9mi, 14km
Updated: Fri, 20-Sep-2019 12:53am MDT
Clear
Clear
 Wind from SW
Wind: SW 6 mph , 9 km/h
Temperature: 63°F , 17°C
Dew Point: 52°F , 11°C
Humidity: 68%
Barometer: 29.93 inHg , 1013.5 hPa
Clouds: Clear
Visibility: 10 miles , 16 km
2019/09/20 06:53 KSJC 200653Z 22005KT 10SM CLR 17/11 A2993 RMK AO2 SLP133 LAST T01720106
KNUQ - Moffett Nas/Mtn, California, USA
Distance from station: N 9mi, 14km
Updated: Fri, 20-Sep-2019 12:56am MDT

 
Barometer: 29.93 inHg , 1013.5 hPa
2019/09/20 06:56 KNUQ 200656Z A2993 RMK AO2 SLP139 PWINO $
 
KPAO - Palo Alto, California, USA
Distance from station: NNW 14mi, 23km
Updated: Thu, 19-Sep-2019 9:47pm MDT
NOT Current
Clear
Clear
 Wind from NNW
Wind: NNW 6 mph , 9 km/h
Temperature: 63°F , 17°C
Dew Point: 52°F , 11°C
Humidity: 68%
Barometer: 29.92 inHg , 1013.2 hPa
Clouds: Clear
Visibility: 10 miles , 16 km
2019/09/20 03:47 KPAO 200347Z 34005KT 10SM SKC 17/11 A2992 RMK LAST
KRHV - San Jose/Reid, California, USA
Distance from station: ENE 12mi, 19km
Updated: Thu, 19-Sep-2019 10:53pm MDT
NOT Current
Clear
Clear
 Wind from calm
Wind: Calm
Temperature: 64°F , 18°C
Dew Point: 54°F , 12°C
Humidity: 68%
Barometer: 29.93 inHg , 1013.5 hPa
Clouds: Clear
Visibility: 10 miles , 16 km
2019/09/20 04:53 KRHV 200453Z 00000KT 10SM SKC 18/12 A2993 RMK LAST
 
KOAK - Oakland, California, USA
Distance from station: NNW 31mi, 50km
Updated: Fri, 20-Sep-2019 12:53am MDT
Clear
Clear
 Wind from NNE
Wind: NNE 3 mph , 6 km/h
Temperature: 63°F , 17°C
Dew Point: 52°F , 11°C
Humidity: 68%
Barometer: 29.93 inHg , 1013.5 hPa
Clouds: Clear
Visibility: 10 miles , 16 km
2019/09/20 06:53 KOAK 200653Z 03003KT 10SM CLR 17/11 A2993 RMK AO2 SLP132 T01720111
KSQL - San Carlos Airpo, California, USA
Distance from station: NW 21mi, 34km
Updated: Thu, 19-Sep-2019 9:47pm MDT
NOT Current
Clear
Clear
 Wind from W
Wind: W 9 mph , 15 km/h
Temperature: 66°F , 19°C
Dew Point: 48°F , 9°C
Humidity: 52%
Barometer: 29.92 inHg , 1013.2 hPa
Clouds: Clear
Visibility: 10 miles , 16 km
2019/09/20 03:47 KSQL 200347Z 27008KT 10SM SKC 19/09 A2992
 
KSFO - San Francisco, California, USA
Distance from station: NW 30mi, 49km
Updated: Fri, 20-Sep-2019 12:56am MDT
Clear
Clear
 Wind from NW
Wind: NW 10 mph , 17 km/h
Temperature: 61°F , 16°C
Dew Point: 54°F , 12°C
Humidity: 77%
Barometer: 29.92 inHg , 1013.2 hPa
Clouds: Clear
Visibility: 10 miles , 16 km
2019/09/20 06:56 KSFO 200656Z 31009KT 10SM CLR 16/12 A2992 RMK AO2 SLP131 T01610117
KE16 - San Martin, California, USA
Distance from station: ESE 27mi, 43km
Updated: Fri, 20-Sep-2019 1:35am MDT
Clear
Clear
 Wind from NW
Wind: NW 6 mph , 9 km/h
Temperature: 61°F , 16°C
Dew Point: 52°F , 11°C
Humidity: 72%
Barometer: 29.95 inHg , 1014.2 hPa
Clouds: Clear
Visibility: 10 miles , 16 km
2019/09/20 07:35 KE16 200735Z AUTO 31005KT 10SM CLR 16/11 A2995 RMK AO2 PWINO PNO
 
KWVI - Watsonville, California, USA
Distance from station: SSE 27mi, 44km
Updated: Fri, 13-Sep-2019 3:53pm MDT
NOT Current
Clear
Clear
 Wind from W
Wind: W 10 mph , 17 km/h
Temperature: 99°F , 37°C
Dew Point: 39°F , 4°C
Humidity: 13%
Barometer: 29.93 inHg , 1013.5 hPa
Clouds: Clear
Visibility: 10 miles , 16 km
2019/09/13 21:53 KWVI 132153Z AUTO 27009KT 10SM CLR 37/04 A2993 RMK AO2 SLP133 T03670039
KHAF - Half Moon Bay, California, USA
Distance from station: WNW 31mi, 50km
Updated: Fri, 20-Sep-2019 1:40am MDT
Clear
Clear
 Wind from calm
Wind: Calm
Temperature: 52°F , 11°C
Dew Point: 48°F , 9°C
Humidity: 88%
Barometer: 29.95 inHg , 1014.2 hPa
Clouds: Clear
Visibility: 10 miles , 16 km
2019/09/20 07:40 KHAF 200740Z AUTO 00000KT 10SM CLR 11/09 A2995 RMK AO2
 
KHWD - Hayward, California, USA
Distance from station: N 28mi, 44km
Updated: Fri, 20-Sep-2019 12:54am MDT
Clear
Clear
 Wind from calm
Wind: Calm
Temperature: 61°F , 16°C
Dew Point: 52°F , 11°C
Humidity: 72%
Barometer: 29.92 inHg , 1013.2 hPa
Clouds: Clear
Visibility: 10 miles , 16 km
2019/09/20 06:54 KHWD 200654Z AUTO 00000KT 10SM CLR 16/11 A2992 RMK AO2 SLP140 T01610106
KLVK - Livermore, California, USA
Distance from station: NNE 31mi, 51km
Updated: Fri, 20-Sep-2019 12:53am MDT
Clear
Clear
 Wind from ENE
Wind: ENE 3 mph , 6 km/h
Temperature: 57°F , 14°C
Dew Point: 48°F , 9°C
Humidity: 72%
Barometer: 29.92 inHg , 1013.2 hPa
Clouds: Clear
Visibility: 10 miles , 16 km
2019/09/20 06:53 KLVK 200653Z AUTO 07003KT 10SM CLR 14/09 A2992 RMK AO2 SLP131 T01440089